createdAt,value
2022-09-12T00:01:13.015Z,12.28
2022-09-12T00:03:39.849Z,12.23
2022-09-12T00:06:11.876Z,12.22
2022-09-12T00:08:38.971Z,12.15
2022-09-12T00:11:08.067Z,12.04
2022-09-12T00:13:39.511Z,11.98
2022-09-12T00:16:08.041Z,11.91
2022-09-12T00:18:34.728Z,11.87
2022-09-12T00:21:05.372Z,11.79
2022-09-12T00:23:33.367Z,11.76
2022-09-12T00:26:00.044Z,11.77
2022-09-12T00:28:27.154Z,11.81
2022-09-12T00:30:53.965Z,11.86
2022-09-12T00:33:20.667Z,11.92
2022-09-12T00:35:50.233Z,11.87
2022-09-12T00:38:17.667Z,11.87
2022-09-12T00:40:44.330Z,11.89
2022-09-12T00:43:31.147Z,11.91
2022-09-12T00:45:59.084Z,11.91
2022-09-12T00:48:33.960Z,11.92
2022-09-12T00:51:01.972Z,11.98
2022-09-12T00:53:28.853Z,11.95
2022-09-12T00:55:56.744Z,11.94
2022-09-12T00:58:28.125Z,11.93
2022-09-12T01:00:54.845Z,11.94
2022-09-12T01:03:24.085Z,11.98
2022-09-12T01:06:08.680Z,11.93
2022-09-12T01:08:37.756Z,11.93
2022-09-12T01:11:05.929Z,11.91
2022-09-12T01:13:35.340Z,11.91
2022-09-12T01:16:04.222Z,11.91
2022-09-12T01:19:02.638Z,11.93
2022-09-12T01:21:54.625Z,11.95
2022-09-12T01:24:26.978Z,11.95
2022-09-12T01:27:00.234Z,11.95
2022-09-12T01:29:59.474Z,11.89
2022-09-12T01:33:02.487Z,11.86
2022-09-12T01:35:41.658Z,11.85
2022-09-12T01:38:36.376Z,11.88
2022-09-12T01:41:25.015Z,11.86
2022-09-12T01:44:22.807Z,11.81
2022-09-12T01:47:14.097Z,11.83
2022-09-12T01:49:57.288Z,11.77
2022-09-12T01:52:32.443Z,11.80
2022-09-12T01:55:13.296Z,11.82
2022-09-12T01:57:46.397Z,11.82
2022-09-12T02:00:13.641Z,11.79
2022-09-12T02:03:03.058Z,11.86
2022-09-12T02:06:08.368Z,11.75
2022-09-12T02:08:45.350Z,11.67
2022-09-12T02:11:12.916Z,11.65
2022-09-12T02:13:42.243Z,11.60
2022-09-12T02:16:18.250Z,11.54
2022-09-12T02:18:50.109Z,11.50
2022-09-12T02:21:20.082Z,11.51
2022-09-12T02:23:50.814Z,11.48
2022-09-12T02:26:26.013Z,11.50
2022-09-12T02:28:52.483Z,11.49
2022-09-12T02:31:40.563Z,11.42
2022-09-12T02:34:17.174Z,11.45
2022-09-12T02:36:55.409Z,11.44
2022-09-12T02:39:21.985Z,11.46
2022-09-12T02:41:51.705Z,11.47
2022-09-12T02:44:19.095Z,11.51
2022-09-12T02:46:51.632Z,11.55
2022-09-12T02:49:18.214Z,11.40
2022-09-12T02:51:46.658Z,11.43
2022-09-12T02:54:14.736Z,11.39
2022-09-12T02:56:43.057Z,11.33
2022-09-12T02:59:13.132Z,11.22
2022-09-12T03:02:24.566Z,11.25
2022-09-12T03:05:23.316Z,11.18
2022-09-12T03:07:52.632Z,11.03
2022-09-12T03:10:41.927Z,11.02
2022-09-12T03:13:23.204Z,10.93
2022-09-12T03:16:12.328Z,10.84
2022-09-12T03:18:57.204Z,10.73
2022-09-12T03:21:41.286Z,10.74
2022-09-12T03:24:23.138Z,10.81
2022-09-12T03:27:05.445Z,10.83
2022-09-12T03:29:32.196Z,10.84
2022-09-12T03:31:59.066Z,10.81
2022-09-12T03:34:27.849Z,10.78
2022-09-12T03:36:58.224Z,10.74
2022-09-12T03:39:26.472Z,10.79
2022-09-12T03:41:54.257Z,10.83
2022-09-12T03:44:20.944Z,10.90
2022-09-12T03:46:47.726Z,10.88
2022-09-12T03:49:14.637Z,10.93
2022-09-12T03:51:41.370Z,11.00
2022-09-12T03:54:08.092Z,10.99
2022-09-12T03:56:36.201Z,10.90
2022-09-12T03:59:06.928Z,10.88
2022-09-12T04:01:34.408Z,10.86
2022-09-12T04:04:01.113Z,10.86
2022-09-12T04:06:27.758Z,10.71
2022-09-12T04:08:55.410Z,10.64
2022-09-12T04:11:23.263Z,10.68
2022-09-12T04:13:50.211Z,10.58
2022-09-12T04:16:17.894Z,10.53
2022-09-12T04:18:45.820Z,10.33
2022-09-12T04:21:15.982Z,10.32
2022-09-12T04:23:42.514Z,10.33
2022-09-12T04:26:10.225Z,10.36
2022-09-12T04:28:38.382Z,10.33
2022-09-12T04:31:08.126Z,10.27
2022-09-12T04:33:37.368Z,10.33
2022-09-12T04:36:09.253Z,10.27
2022-09-12T04:38:36.861Z,10.29
2022-09-12T04:41:13.785Z,10.28
2022-09-12T04:43:40.798Z,10.26
2022-09-12T04:46:08.996Z,10.25
2022-09-12T04:48:36.002Z,10.30
2022-09-12T04:51:21.140Z,10.33
2022-09-12T04:53:50.101Z,10.36
2022-09-12T04:56:17.110Z,10.42
2022-09-12T04:58:44.078Z,10.41
2022-09-12T05:01:15.669Z,10.51
2022-09-12T05:03:43.718Z,10.53
2022-09-12T05:06:19.239Z,10.51
2022-09-12T05:08:46.272Z,10.52
2022-09-12T05:11:22.728Z,10.58
2022-09-12T05:13:52.163Z,10.65
2022-09-12T05:16:20.226Z,10.77
2022-09-12T05:18:47.499Z,10.73
2022-09-12T05:21:16.900Z,10.73
2022-09-12T05:23:43.629Z,10.74
2022-09-12T05:26:15.606Z,10.83
2022-09-12T05:28:42.550Z,10.87
2022-09-12T05:31:14.608Z,10.94
2022-09-12T05:33:43.520Z,10.87
2022-09-12T05:36:13.063Z,10.96
2022-09-12T05:38:39.766Z,10.97
2022-09-12T05:41:16.949Z,11.10
2022-09-12T05:43:46.237Z,11.19
2022-09-12T05:46:15.320Z,11.35
2022-09-12T05:48:43.844Z,11.45
2022-09-12T05:51:13.425Z,11.62
2022-09-12T05:53:41.120Z,11.82
2022-09-12T05:56:13.577Z,11.97
2022-09-12T05:58:43.274Z,12.06
2022-09-12T06:01:12.366Z,12.20
2022-09-12T06:03:48.347Z,12.31
2022-09-12T06:06:17.225Z,12.39
2022-09-12T06:08:45.708Z,12.38
2022-09-12T06:11:14.847Z,12.50
2022-09-12T06:13:43.225Z,12.66
2022-09-12T06:16:15.630Z,12.83
2022-09-12T06:18:47.250Z,12.96
2022-09-12T06:21:14.030Z,13.15
2022-09-12T06:23:41.019Z,13.42
2022-09-12T06:26:10.213Z,13.57
2022-09-12T06:28:39.082Z,13.87
2022-09-12T06:31:11.674Z,14.11
2022-09-12T06:33:49.402Z,14.30
2022-09-12T06:36:18.471Z,14.51
2022-09-12T06:38:48.928Z,14.69
2022-09-12T06:41:15.936Z,14.95
2022-09-12T06:43:43.259Z,15.12
2022-09-12T06:46:11.268Z,15.33
2022-09-12T06:48:41.747Z,15.57
2022-09-12T06:51:17.203Z,15.70
2022-09-12T06:53:45.455Z,15.83
2022-09-12T06:56:14.853Z,16.01
2022-09-12T06:58:42.762Z,16.39
2022-09-12T07:01:22.770Z,16.74
2022-09-12T07:03:51.720Z,16.97
2022-09-12T07:06:20.897Z,17.19
2022-09-12T07:08:47.846Z,17.34
2022-09-12T07:11:20.317Z,17.66
2022-09-12T07:13:49.781Z,17.82
2022-09-12T07:16:19.733Z,17.77
2022-09-12T07:18:55.044Z,18.12
2022-09-12T07:21:22.782Z,18.53
2022-09-12T07:23:49.686Z,18.89
2022-09-12T07:26:16.740Z,19.08
2022-09-12T07:28:43.696Z,19.45
2022-09-12T07:31:16.104Z,19.21
2022-09-12T07:33:43.606Z,19.75
2022-09-12T07:36:16.384Z,19.85
2022-09-12T07:38:44.162Z,20.04
2022-09-12T07:41:15.583Z,20.50
2022-09-12T07:43:42.168Z,20.56
2022-09-12T07:46:09.610Z,21.16
2022-09-12T07:48:36.947Z,21.28
2022-09-12T07:51:09.107Z,21.52
2022-09-12T07:53:41.297Z,21.74
2022-09-12T07:56:11.137Z,21.96
2022-09-12T07:58:39.431Z,22.13
2022-09-12T08:01:07.419Z,22.42
2022-09-12T08:03:34.353Z,22.16
2022-09-12T08:06:21.589Z,22.38
2022-09-12T08:08:49.077Z,22.74
2022-09-12T08:11:18.017Z,22.83
2022-09-12T08:13:45.824Z,22.94
2022-09-12T08:16:18.075Z,23.29
2022-09-12T08:18:44.783Z,23.16
2022-09-12T08:21:14.939Z,23.03
2022-09-12T08:23:42.823Z,22.59
2022-09-12T08:26:11.267Z,23.01
2022-09-12T08:28:40.217Z,23.23
2022-09-12T08:31:08.879Z,23.60
2022-09-12T08:33:35.497Z,24.07
2022-09-12T08:36:11.910Z,24.07
2022-09-12T08:38:40.993Z,23.87
2022-09-12T08:41:29.057Z,23.97
2022-09-12T08:44:04.771Z,24.23
2022-09-12T08:47:08.531Z,24.07
2022-09-12T08:49:44.491Z,25.10
2022-09-12T08:52:48.631Z,25.39
2022-09-12T08:55:22.067Z,25.42
2022-09-12T08:57:48.564Z,25.87
2022-09-12T09:00:16.978Z,25.66
2022-09-12T09:03:01.808Z,25.53
2022-09-12T09:05:45.909Z,25.06
2022-09-12T09:08:28.568Z,25.63
2022-09-12T09:11:24.150Z,26.01
2022-09-12T09:14:37.565Z,25.71
2022-09-12T09:17:11.919Z,25.73
2022-09-12T09:19:48.799Z,25.84
2022-09-12T09:22:36.559Z,26.03
2022-09-12T09:25:11.255Z,25.27
2022-09-12T09:27:46.622Z,25.40
2022-09-12T09:30:16.050Z,26.04
2022-09-12T09:32:45.856Z,26.52
2022-09-12T09:35:22.706Z,26.73
2022-09-12T09:38:01.654Z,26.38
2022-09-12T09:40:50.149Z,26.44
2022-09-12T09:43:24.453Z,26.91
2022-09-12T09:45:52.409Z,26.57
2022-09-12T09:48:31.224Z,26.32
2022-09-12T09:51:00.542Z,25.45
2022-09-12T09:53:43.213Z,24.80
2022-09-12T09:56:15.652Z,25.19
2022-09-12T09:58:42.156Z,24.83
2022-09-12T10:01:17.466Z,24.26
2022-09-12T10:03:52.951Z,24.80
2022-09-12T10:06:19.462Z,25.54
2022-09-12T10:08:47.959Z,26.26
2022-09-12T10:11:23.233Z,26.49
2022-09-12T10:13:58.140Z,26.44
2022-09-12T10:16:27.849Z,26.52
2022-09-12T10:18:57.321Z,26.48
2022-09-12T10:21:28.066Z,25.54
2022-09-12T10:24:05.323Z,25.75
2022-09-12T10:26:36.008Z,25.87
2022-09-12T10:29:13.564Z,25.84
2022-09-12T10:31:47.664Z,26.37
2022-09-12T10:34:31.868Z,26.93
2022-09-12T10:37:07.701Z,26.44
2022-09-12T10:39:36.243Z,25.89
2022-09-12T10:42:04.305Z,25.97
2022-09-12T10:44:33.591Z,26.27
2022-09-12T10:47:19.681Z,25.34
2022-09-12T10:49:47.478Z,25.76
2022-09-12T10:52:28.589Z,25.89
2022-09-12T10:54:55.283Z,25.88
2022-09-12T10:57:54.119Z,25.55
2022-09-12T11:00:28.438Z,26.16
2022-09-12T11:03:25.211Z,26.19
2022-09-12T11:06:00.850Z,26.35
2022-09-12T11:08:42.322Z,26.02
2022-09-12T11:11:27.262Z,26.71
2022-09-12T11:14:11.429Z,26.48
2022-09-12T11:16:59.179Z,26.69
2022-09-12T11:19:59.606Z,26.69
2022-09-12T11:22:45.563Z,26.76
2022-09-12T11:25:32.337Z,26.84
2022-09-12T11:28:26.063Z,26.76
2022-09-12T11:31:13.715Z,26.61
2022-09-12T11:33:48.073Z,26.65
2022-09-12T11:36:20.693Z,26.48
2022-09-12T11:39:14.990Z,26.51
2022-09-12T11:41:45.469Z,26.54
2022-09-12T11:44:18.533Z,26.63
2022-09-12T11:46:48.760Z,26.91
2022-09-12T11:49:35.281Z,27.00
2022-09-12T11:52:22.928Z,27.03
2022-09-12T11:55:19.468Z,26.88
2022-09-12T11:57:53.026Z,26.35
2022-09-12T12:00:20.857Z,26.96
2022-09-12T12:03:05.278Z,26.23
2022-09-12T12:05:41.381Z,25.49
2022-09-12T12:08:09.663Z,25.14
2022-09-12T12:10:48.649Z,25.78
2022-09-12T12:13:33.609Z,26.07
2022-09-12T12:16:08.224Z,26.24
2022-09-12T12:18:38.780Z,25.81
2022-09-12T12:21:37.621Z,26.31
2022-09-12T12:24:09.979Z,26.23
2022-09-12T12:26:39.500Z,25.58
2022-09-12T12:29:18.205Z,25.36
2022-09-12T12:32:07.969Z,25.70
2022-09-12T12:34:42.881Z,25.72
2022-09-12T12:37:29.764Z,26.07
2022-09-12T12:40:01.168Z,25.90
2022-09-12T12:42:56.198Z,25.54
2022-09-12T12:45:25.351Z,25.34
2022-09-12T12:48:09.645Z,25.31
2022-09-12T12:50:36.260Z,25.23
2022-09-12T12:53:24.301Z,25.30
2022-09-12T12:55:54.721Z,24.91
2022-09-12T12:58:41.230Z,24.87
2022-09-12T13:01:13.978Z,24.86
2022-09-12T13:04:04.220Z,25.15
2022-09-12T13:06:43.302Z,25.53
2022-09-12T13:09:24.576Z,25.47
2022-09-12T13:12:05.292Z,25.33
2022-09-12T13:14:37.229Z,25.25
2022-09-12T13:17:14.304Z,24.64
2022-09-12T13:19:41.535Z,24.17
2022-09-12T13:22:10.352Z,24.07
2022-09-12T13:24:44.744Z,24.06
2022-09-12T13:27:25.772Z,24.03
2022-09-12T13:30:14.564Z,24.19
2022-09-12T13:32:43.935Z,24.16
2022-09-12T13:35:19.766Z,24.08
2022-09-12T13:38:03.274Z,24.31
2022-09-12T13:40:51.940Z,24.30
2022-09-12T13:43:30.545Z,24.41
2022-09-12T13:45:57.252Z,24.40
2022-09-12T13:48:25.797Z,24.38
2022-09-12T13:51:02.266Z,24.26
2022-09-12T13:53:48.017Z,24.35
2022-09-12T13:56:19.874Z,24.23
2022-09-12T13:58:58.159Z,24.19
2022-09-12T14:01:38.261Z,24.16
2022-09-12T14:04:34.710Z,24.11
2022-09-12T14:07:03.764Z,24.11
2022-09-12T14:09:38.564Z,24.40
2022-09-12T14:12:19.232Z,24.21
2022-09-12T14:14:48.937Z,23.94
2022-09-12T14:17:18.941Z,23.69
2022-09-12T14:19:49.357Z,23.76
2022-09-12T14:22:18.032Z,23.53
2022-09-12T14:24:50.130Z,23.52
2022-09-12T14:27:26.817Z,23.63
2022-09-12T14:30:01.095Z,23.49
2022-09-12T14:32:27.810Z,23.41
2022-09-12T14:35:06.411Z,23.33
2022-09-12T14:37:32.947Z,23.34
2022-09-12T14:40:00.355Z,23.58
2022-09-12T14:42:31.266Z,23.52
2022-09-12T14:45:02.632Z,23.36
2022-09-12T14:47:40.705Z,23.13
2022-09-12T14:50:21.967Z,22.93
2022-09-12T14:53:03.068Z,22.88
2022-09-12T14:55:32.092Z,22.88
2022-09-12T14:58:28.312Z,22.95
2022-09-12T15:01:23.646Z,22.95
2022-09-12T15:03:55.063Z,23.02
2022-09-12T15:06:36.261Z,22.65
2022-09-12T15:09:08.423Z,22.64
2022-09-12T15:11:34.899Z,22.67
2022-09-12T15:14:13.667Z,22.63
2022-09-12T15:16:40.115Z,22.55
2022-09-12T15:19:06.633Z,22.47
2022-09-12T15:21:33.262Z,22.48
2022-09-12T15:23:59.732Z,22.63
2022-09-12T15:26:30.566Z,22.51
2022-09-12T15:28:57.532Z,22.32
2022-09-12T15:31:29.252Z,22.42
2022-09-12T15:33:57.550Z,22.35
2022-09-12T15:36:25.872Z,22.27
2022-09-12T15:38:53.585Z,22.12
2022-09-12T15:41:40.356Z,22.19
2022-09-12T15:44:10.794Z,22.17
2022-09-12T15:46:37.498Z,22.12
2022-09-12T15:49:04.320Z,21.95
2022-09-12T15:51:30.945Z,21.86
2022-09-12T15:53:57.393Z,21.81
2022-09-12T15:56:23.937Z,21.85
2022-09-12T15:58:58.848Z,21.71
2022-09-12T16:01:26.679Z,21.61
2022-09-12T16:03:53.282Z,21.47
2022-09-12T16:06:19.786Z,21.42
2022-09-12T16:08:46.313Z,21.38
2022-09-12T16:11:22.080Z,21.41
2022-09-12T16:13:49.145Z,21.31
2022-09-12T16:16:15.710Z,21.15
2022-09-12T16:18:42.371Z,21.07
2022-09-12T16:21:12.787Z,20.98
2022-09-12T16:23:46.163Z,20.92
2022-09-12T16:26:12.965Z,20.89
2022-09-12T16:28:40.003Z,20.92
2022-09-12T16:31:08.521Z,20.79
2022-09-12T16:33:35.328Z,20.86
2022-09-12T16:36:07.624Z,20.75
2022-09-12T16:38:34.765Z,20.68
2022-09-12T16:41:07.039Z,20.67
2022-09-12T16:43:34.801Z,20.62
2022-09-12T16:46:06.997Z,20.48
2022-09-12T16:48:34.539Z,20.47
2022-09-12T16:51:04.683Z,20.37
2022-09-12T16:53:33.241Z,20.36
2022-09-12T16:56:00.181Z,20.29
2022-09-12T16:58:27.206Z,20.20
2022-09-12T17:01:08.995Z,20.16
2022-09-12T17:03:36.262Z,20.09
2022-09-12T17:06:12.076Z,20.13
2022-09-12T17:08:41.482Z,20.08
2022-09-12T17:11:14.165Z,19.95
2022-09-12T17:14:03.258Z,19.82
2022-09-12T17:16:29.417Z,19.71
2022-09-12T17:18:56.251Z,19.68
2022-09-12T17:21:23.035Z,19.53
2022-09-12T17:23:49.877Z,19.46
2022-09-12T17:26:16.782Z,19.35
2022-09-12T17:28:43.956Z,19.27
2022-09-12T17:31:13.184Z,19.19
2022-09-12T17:33:40.572Z,19.11
2022-09-12T17:36:11.149Z,19.04
2022-09-12T17:38:39.792Z,19.00
2022-09-12T17:41:06.297Z,18.94
2022-09-12T17:43:33.483Z,18.89
2022-09-12T17:46:00.157Z,18.84
2022-09-12T17:48:27.328Z,18.80
2022-09-12T17:50:54.476Z,18.65
2022-09-12T17:53:21.262Z,18.65
2022-09-12T17:55:51.457Z,18.48
2022-09-12T17:58:20.441Z,18.44
2022-09-12T18:01:05.570Z,18.40
2022-09-12T18:03:32.270Z,18.36
2022-09-12T18:05:58.798Z,18.33
2022-09-12T18:08:25.444Z,18.31
2022-09-12T18:10:52.441Z,18.20
2022-09-12T18:13:19.092Z,18.20
2022-09-12T18:15:45.741Z,18.19
2022-09-12T18:18:12.351Z,18.05
2022-09-12T18:20:40.275Z,17.92
2022-09-12T18:23:06.692Z,17.88
2022-09-12T18:25:33.159Z,17.80
2022-09-12T18:27:59.659Z,17.88
2022-09-12T18:30:26.113Z,17.76
2022-09-12T18:32:53.333Z,17.72
2022-09-12T18:35:19.998Z,17.74
2022-09-12T18:37:46.543Z,17.62
2022-09-12T18:40:13.476Z,17.70
2022-09-12T18:42:40.077Z,17.62
2022-09-12T18:45:08.506Z,17.56
2022-09-12T18:47:35.132Z,17.60
2022-09-12T18:50:01.826Z,17.60
2022-09-12T18:52:28.456Z,17.59
2022-09-12T18:54:54.999Z,17.59
2022-09-12T18:57:21.477Z,17.57
2022-09-12T18:59:48.087Z,17.50
2022-09-12T19:02:17.496Z,17.52
2022-09-12T19:04:44.405Z,17.62
2022-09-12T19:07:10.936Z,17.59
2022-09-12T19:09:37.578Z,17.52
2022-09-12T19:12:04.465Z,17.57
2022-09-12T19:14:31.184Z,17.52
2022-09-12T19:16:57.803Z,17.49
2022-09-12T19:19:24.484Z,17.53
2022-09-12T19:21:51.253Z,17.46
2022-09-12T19:24:18.202Z,17.52
2022-09-12T19:26:45.155Z,17.45
2022-09-12T19:29:12.032Z,17.39
2022-09-12T19:31:38.579Z,17.37
2022-09-12T19:34:06.859Z,17.39
2022-09-12T19:36:44.997Z,17.41
2022-09-12T19:39:13.207Z,17.37
2022-09-12T19:41:39.757Z,17.42
2022-09-12T19:44:06.311Z,17.48
2022-09-12T19:46:33.045Z,17.51
2022-09-12T19:48:59.877Z,17.35
2022-09-12T19:51:26.586Z,17.38
2022-09-12T19:53:53.594Z,17.21
2022-09-12T19:56:20.634Z,17.13
2022-09-12T19:58:52.278Z,17.19
2022-09-12T20:01:28.514Z,17.02
2022-09-12T20:03:56.626Z,16.92
2022-09-12T20:06:23.327Z,16.88
2022-09-12T20:08:50.681Z,16.72
2022-09-12T20:11:19.602Z,16.67
2022-09-12T20:13:47.448Z,16.71
2022-09-12T20:16:21.414Z,16.69
2022-09-12T20:18:53.780Z,16.54
2022-09-12T20:21:25.394Z,16.54
2022-09-12T20:23:52.334Z,16.56
2022-09-12T20:26:20.506Z,16.54
2022-09-12T20:28:47.465Z,16.60
2022-09-12T20:31:16.071Z,16.53
2022-09-12T20:33:43.306Z,16.53
2022-09-12T20:36:15.679Z,16.50
2022-09-12T20:38:48.937Z,16.41
2022-09-12T20:41:16.104Z,16.45
2022-09-12T20:43:42.853Z,16.43
2022-09-12T20:46:10.859Z,16.39
2022-09-12T20:48:39.032Z,16.37
2022-09-12T20:51:06.325Z,16.41
2022-09-12T20:53:35.195Z,16.42
2022-09-12T20:56:03.038Z,16.41
2022-09-12T20:58:29.754Z,16.35
2022-09-12T21:00:56.780Z,16.34
2022-09-12T21:03:23.456Z,16.30
2022-09-12T21:05:50.101Z,16.30
2022-09-12T21:08:16.893Z,16.30
2022-09-12T21:10:44.848Z,16.32
2022-09-12T21:13:12.463Z,16.23
2022-09-12T21:15:40.301Z,16.17
2022-09-12T21:18:07.394Z,16.18
2022-09-12T21:20:34.511Z,16.17
2022-09-12T21:23:01.351Z,16.11
2022-09-12T21:25:29.285Z,16.15
2022-09-12T21:27:56.024Z,16.12
2022-09-12T21:30:22.655Z,16.11
2022-09-12T21:32:49.312Z,16.11
2022-09-12T21:35:16.100Z,16.17
2022-09-12T21:37:42.681Z,16.11
2022-09-12T21:40:09.590Z,16.10
2022-09-12T21:42:36.231Z,16.01
2022-09-12T21:45:02.785Z,15.90
2022-09-12T21:47:29.253Z,15.95
2022-09-12T21:49:55.776Z,15.94
2022-09-12T21:52:22.240Z,15.87
2022-09-12T21:54:48.699Z,15.81
2022-09-12T21:57:15.704Z,15.85
2022-09-12T21:59:42.189Z,15.90
2022-09-12T22:02:08.929Z,16.01
2022-09-12T22:04:35.536Z,15.97
2022-09-12T22:07:02.171Z,15.97
2022-09-12T22:09:28.715Z,16.04
2022-09-12T22:11:55.937Z,16.05
2022-09-12T22:14:22.581Z,16.01
2022-09-12T22:16:49.544Z,16.00
2022-09-12T22:19:16.345Z,16.08
2022-09-12T22:22:03.110Z,16.02
2022-09-12T22:24:30.013Z,15.98
2022-09-12T22:26:57.684Z,16.07
2022-09-12T22:29:24.324Z,15.93
2022-09-12T22:31:50.892Z,15.85
2022-09-12T22:34:17.496Z,15.88
2022-09-12T22:36:44.722Z,15.81
2022-09-12T22:39:11.265Z,15.84
2022-09-12T22:41:37.947Z,15.79
2022-09-12T22:44:04.775Z,15.86
2022-09-12T22:46:31.360Z,15.78
2022-09-12T22:48:57.895Z,15.78
2022-09-12T22:51:24.465Z,15.66
2022-09-12T22:53:51.651Z,15.70
2022-09-12T22:56:18.998Z,15.70
2022-09-12T22:58:45.604Z,15.62
2022-09-12T23:01:12.314Z,15.60
2022-09-12T23:03:39.348Z,15.57
2022-09-12T23:06:06.285Z,15.56
2022-09-12T23:08:35.163Z,15.59
2022-09-12T23:11:04.267Z,15.64
2022-09-12T23:13:31.008Z,15.65
2022-09-12T23:16:01.368Z,15.61
2022-09-12T23:18:28.425Z,15.68
2022-09-12T23:21:00.254Z,15.70
2022-09-12T23:23:27.464Z,15.68
2022-09-12T23:26:08.158Z,15.68
2022-09-12T23:28:35.549Z,15.59
2022-09-12T23:31:02.903Z,15.60
2022-09-12T23:33:31.157Z,15.57
2022-09-12T23:36:02.500Z,15.56
2022-09-12T23:38:30.601Z,15.52
2022-09-12T23:40:57.724Z,15.61
2022-09-12T23:43:24.273Z,15.68
2022-09-12T23:45:50.962Z,15.67
2022-09-12T23:48:18.319Z,15.65
2022-09-12T23:50:46.705Z,15.59
2022-09-12T23:53:14.660Z,15.68
2022-09-12T23:55:41.769Z,15.59
2022-09-12T23:58:08.740Z,15.56
